<?xml version="1.0" encoding="UTF-8" standalone="no" ?>
<gpx xmlns="http://www.topografix.com/GPX/1/1" creator="MapSource 6.11.6" version="1.1" xmlns:xsi="http://www.w3.org/2001/XMLSchema-instance" xsi:schemaLocation="http://www.topografix.com/GPX/1/1 http://www.topografix.com/GPX/1/1/gpx.xsd">

  <metadata>
    <link href="http://www.garmin.com">
      <text>Garmin International</text>
    </link>
    <time>2009-10-18T15:35:42Z</time>
    <bounds maxlat="50.553690" maxlon="6.246155" minlat="50.528583" minlon="6.198276"/>
  </metadata>

  <trk>
    <name>Monschau, der Jahrhundertweg</name>
    <extensions>
      <gpxx:TrackExtension xmlns:gpxx="http://www.garmin.com/xmlschemas/GpxExtensions/v3" xmlns:xsi="http://www.w3.org/2001/XMLSchema-instance" xsi:schemaLocation="http://www.garmin.com/xmlschemas/GpxExtensions/v3 http://www.garmin.com/xmlschemas/GpxExtensions/v3/GpxExtensionsv3.xsd">
        <gpxx:DisplayColor>White</gpxx:DisplayColor>
      </gpxx:TrackExtension>
    </extensions>
    <trkseg>
      <trkpt lat="50.535562" lon="6.199612">
        <ele>489.400000</ele>
        <time>2009-10-18T17:12:58Z</time>
      </trkpt>
      <trkpt lat="50.535599" lon="6.199667">
        <ele>497.100000</ele>
        <time>2009-10-18T17:12:59Z</time>
      </trkpt>
      <trkpt lat="50.535709" lon="6.199657">
        <ele>496.200000</ele>
        <time>2009-10-18T17:13:02Z</time>
      </trkpt>
      <trkpt lat="50.535834" lon="6.199549">
        <ele>497.100000</ele>
        <time>2009-10-18T17:13:07Z</time>
      </trkpt>
      <trkpt lat="50.535849" lon="6.199634">
        <ele>492.300000</ele>
        <time>2009-10-18T17:13:09Z</time>
      </trkpt>
      <trkpt lat="50.536075" lon="6.199514">
        <ele>493.300000</ele>
        <time>2009-10-18T17:13:16Z</time>
      </trkpt>
      <trkpt lat="50.536414" lon="6.199280">
        <ele>499.100000</ele>
        <time>2009-10-18T17:13:27Z</time>
      </trkpt>
      <trkpt lat="50.536485" lon="6.199272">
        <ele>504.800000</ele>
        <time>2009-10-18T17:13:30Z</time>
      </trkpt>
      <trkpt lat="50.536486" lon="6.199456">
        <ele>520.700000</ele>
        <time>2009-10-18T17:13:33Z</time>
      </trkpt>
      <trkpt lat="50.536510" lon="6.199449">
        <ele>515.900000</ele>
        <time>2009-10-18T17:13:34Z</time>
      </trkpt>
      <trkpt lat="50.536580" lon="6.199279">
        <ele>515.400000</ele>
        <time>2009-10-18T17:13:38Z</time>
      </trkpt>
      <trkpt lat="50.536901" lon="6.198983">
        <ele>504.300000</ele>
        <time>2009-10-18T17:13:50Z</time>
      </trkpt>
      <trkpt lat="50.537375" lon="6.198846">
        <ele>502.400000</ele>
        <time>2009-10-18T17:14:04Z</time>
      </trkpt>
      <trkpt lat="50.537714" lon="6.198800">
        <ele>502.400000</ele>
        <time>2009-10-18T17:14:15Z</time>
      </trkpt>
      <trkpt lat="50.538150" lon="6.198848">
        <ele>506.800000</ele>
        <time>2009-10-18T17:14:28Z</time>
      </trkpt>
      <trkpt lat="50.538425" lon="6.199094">
        <ele>504.300000</ele>
        <time>2009-10-18T17:14:38Z</time>
      </trkpt>
      <trkpt lat="50.538582" lon="6.198824">
        <ele>501.900000</ele>
        <time>2009-10-18T17:14:45Z</time>
      </trkpt>
      <trkpt lat="50.538794" lon="6.198533">
        <ele>501.900000</ele>
        <time>2009-10-18T17:14:54Z</time>
      </trkpt>
      <trkpt lat="50.539096" lon="6.198280">
        <ele>505.300000</ele>
        <time>2009-10-18T17:15:05Z</time>
      </trkpt>
      <trkpt lat="50.539215" lon="6.198276">
        <ele>509.200000</ele>
        <time>2009-10-18T17:15:08Z</time>
      </trkpt>
      <trkpt lat="50.539408" lon="6.198535">
        <ele>501.000000</ele>
        <time>2009-10-18T17:15:16Z</time>
      </trkpt>
      <trkpt lat="50.539400" lon="6.198940">
        <ele>501.000000</ele>
        <time>2009-10-18T17:15:24Z</time>
      </trkpt>
      <trkpt lat="50.539751" lon="6.200360">
        <ele>490.900000</ele>
        <time>2009-10-18T17:15:54Z</time>
      </trkpt>
      <trkpt lat="50.539721" lon="6.200812">
        <ele>521.200000</ele>
        <time>2009-10-18T17:16:03Z</time>
      </trkpt>
      <trkpt lat="50.539426" lon="6.200947">
        <ele>504.800000</ele>
        <time>2009-10-18T17:16:13Z</time>
      </trkpt>
      <trkpt lat="50.539471" lon="6.200784">
        <ele>496.700000</ele>
        <time>2009-10-18T17:16:16Z</time>
      </trkpt>
      <trkpt lat="50.539458" lon="6.200922">
        <ele>500.500000</ele>
        <time>2009-10-18T17:16:19Z</time>
      </trkpt>
      <trkpt lat="50.539496" lon="6.201029">
        <ele>496.700000</ele>
        <time>2009-10-18T17:16:21Z</time>
      </trkpt>
      <trkpt lat="50.539609" lon="6.200879">
        <ele>495.200000</ele>
        <time>2009-10-18T17:16:26Z</time>
      </trkpt>
      <trkpt lat="50.539737" lon="6.200495">
        <ele>502.900000</ele>
        <time>2009-10-18T17:16:34Z</time>
      </trkpt>
      <trkpt lat="50.539629" lon="6.200050">
        <ele>503.900000</ele>
        <time>2009-10-18T17:16:44Z</time>
      </trkpt>
      <trkpt lat="50.539599" lon="6.199822">
        <ele>499.500000</ele>
        <time>2009-10-18T17:16:48Z</time>
      </trkpt>
      <trkpt lat="50.539470" lon="6.199684">
        <ele>499.100000</ele>
        <time>2009-10-18T17:16:53Z</time>
      </trkpt>
      <trkpt lat="50.539545" lon="6.199556">
        <ele>496.200000</ele>
        <time>2009-10-18T17:16:56Z</time>
      </trkpt>
      <trkpt lat="50.539601" lon="6.199568">
        <ele>495.200000</ele>
        <time>2009-10-18T17:16:58Z</time>
      </trkpt>
      <trkpt lat="50.540180" lon="6.200735">
        <ele>481.300000</ele>
        <time>2009-10-18T17:17:27Z</time>
      </trkpt>
      <trkpt lat="50.540406" lon="6.201324">
        <ele>471.200000</ele>
        <time>2009-10-18T17:17:41Z</time>
      </trkpt>
      <trkpt lat="50.540449" lon="6.201683">
        <ele>479.800000</ele>
        <time>2009-10-18T17:17:48Z</time>
      </trkpt>
      <trkpt lat="50.540716" lon="6.201795">
        <ele>492.300000</ele>
        <time>2009-10-18T17:17:57Z</time>
      </trkpt>
      <trkpt lat="50.540916" lon="6.201701">
        <ele>485.100000</ele>
        <time>2009-10-18T17:18:03Z</time>
      </trkpt>
      <trkpt lat="50.541134" lon="6.201719">
        <ele>490.900000</ele>
        <time>2009-10-18T17:18:10Z</time>
      </trkpt>
      <trkpt lat="50.541494" lon="6.201914">
        <ele>481.300000</ele>
        <time>2009-10-18T17:18:22Z</time>
      </trkpt>
      <trkpt lat="50.541947" lon="6.201994">
        <ele>483.700000</ele>
        <time>2009-10-18T17:18:36Z</time>
      </trkpt>
      <trkpt lat="50.542230" lon="6.202134">
        <ele>486.100000</ele>
        <time>2009-10-18T17:18:45Z</time>
      </trkpt>
      <trkpt lat="50.542579" lon="6.202434">
        <ele>483.200000</ele>
        <time>2009-10-18T17:18:57Z</time>
      </trkpt>
      <trkpt lat="50.542556" lon="6.202522">
        <ele>490.400000</ele>
        <time>2009-10-18T17:18:59Z</time>
      </trkpt>
      <trkpt lat="50.542767" lon="6.202554">
        <ele>484.600000</ele>
        <time>2009-10-18T17:19:06Z</time>
      </trkpt>
      <trkpt lat="50.543260" lon="6.202914">
        <ele>476.500000</ele>
        <time>2009-10-18T17:19:22Z</time>
      </trkpt>
      <trkpt lat="50.543656" lon="6.203525">
        <ele>478.400000</ele>
        <time>2009-10-18T17:19:39Z</time>
      </trkpt>
      <trkpt lat="50.543804" lon="6.203679">
        <ele>484.600000</ele>
        <time>2009-10-18T17:19:45Z</time>
      </trkpt>
      <trkpt lat="50.543860" lon="6.203858">
        <ele>487.000000</ele>
        <time>2009-10-18T17:19:49Z</time>
      </trkpt>
      <trkpt lat="50.543835" lon="6.203933">
        <ele>489.000000</ele>
        <time>2009-10-18T17:19:51Z</time>
      </trkpt>
      <trkpt lat="50.543882" lon="6.204131">
        <ele>495.700000</ele>
        <time>2009-10-18T17:19:55Z</time>
      </trkpt>
      <trkpt lat="50.544000" lon="6.204105">
        <ele>507.700000</ele>
        <time>2009-10-18T17:19:58Z</time>
      </trkpt>
      <trkpt lat="50.544189" lon="6.204512">
        <ele>494.700000</ele>
        <time>2009-10-18T17:20:08Z</time>
      </trkpt>
      <trkpt lat="50.544461" lon="6.205515">
        <ele>514.400000</ele>
        <time>2009-10-18T17:20:30Z</time>
      </trkpt>
      <trkpt lat="50.544483" lon="6.205803">
        <ele>519.200000</ele>
        <time>2009-10-18T17:20:35Z</time>
      </trkpt>
      <trkpt lat="50.544707" lon="6.207151">
        <ele>511.100000</ele>
        <time>2009-10-18T17:21:03Z</time>
      </trkpt>
      <trkpt lat="50.544767" lon="6.207393">
        <ele>501.500000</ele>
        <time>2009-10-18T17:21:08Z</time>
      </trkpt>
      <trkpt lat="50.545434" lon="6.208823">
        <ele>484.200000</ele>
        <time>2009-10-18T17:21:43Z</time>
      </trkpt>
      <trkpt lat="50.545540" lon="6.208912">
        <ele>484.200000</ele>
        <time>2009-10-18T17:21:46Z</time>
      </trkpt>
      <trkpt lat="50.545760" lon="6.209306">
        <ele>469.700000</ele>
        <time>2009-10-18T17:21:57Z</time>
      </trkpt>
      <trkpt lat="50.545953" lon="6.209385">
        <ele>473.600000</ele>
        <time>2009-10-18T17:22:03Z</time>
      </trkpt>
      <trkpt lat="50.546117" lon="6.209568">
        <ele>469.700000</ele>
        <time>2009-10-18T17:22:09Z</time>
      </trkpt>
      <trkpt lat="50.546303" lon="6.209635">
        <ele>468.800000</ele>
        <time>2009-10-18T17:22:15Z</time>
      </trkpt>
      <trkpt lat="50.546915" lon="6.209521">
        <ele>489.000000</ele>
        <time>2009-10-18T17:22:34Z</time>
      </trkpt>
      <trkpt lat="50.547271" lon="6.209595">
        <ele>473.100000</ele>
        <time>2009-10-18T17:22:45Z</time>
      </trkpt>
      <trkpt lat="50.547413" lon="6.209688">
        <ele>472.100000</ele>
        <time>2009-10-18T17:22:50Z</time>
      </trkpt>
      <trkpt lat="50.547779" lon="6.209735">
        <ele>477.400000</ele>
        <time>2009-10-18T17:23:01Z</time>
      </trkpt>
      <trkpt lat="50.548097" lon="6.209507">
        <ele>488.500000</ele>
        <time>2009-10-18T17:23:12Z</time>
      </trkpt>
      <trkpt lat="50.548331" lon="6.209430">
        <ele>477.900000</ele>
        <time>2009-10-18T17:23:20Z</time>
      </trkpt>
      <trkpt lat="50.548726" lon="6.209534">
        <ele>471.200000</ele>
        <time>2009-10-18T17:23:32Z</time>
      </trkpt>
      <trkpt lat="50.549227" lon="6.210109">
        <ele>462.500000</ele>
        <time>2009-10-18T17:23:51Z</time>
      </trkpt>
      <trkpt lat="50.549350" lon="6.210175">
        <ele>462.100000</ele>
        <time>2009-10-18T17:23:55Z</time>
      </trkpt>
      <trkpt lat="50.549424" lon="6.210303">
        <ele>463.000000</ele>
        <time>2009-10-18T17:23:59Z</time>
      </trkpt>
      <trkpt lat="50.549726" lon="6.210549">
        <ele>461.600000</ele>
        <time>2009-10-18T17:24:09Z</time>
      </trkpt>
      <trkpt lat="50.550057" lon="6.210729">
        <ele>460.600000</ele>
        <time>2009-10-18T17:24:20Z</time>
      </trkpt>
      <trkpt lat="50.550240" lon="6.210914">
        <ele>459.200000</ele>
        <time>2009-10-18T17:24:27Z</time>
      </trkpt>
      <trkpt lat="50.550452" lon="6.210990">
        <ele>459.200000</ele>
        <time>2009-10-18T17:24:33Z</time>
      </trkpt>
      <trkpt lat="50.551013" lon="6.211544">
        <ele>464.000000</ele>
        <time>2009-10-18T17:24:54Z</time>
      </trkpt>
      <trkpt lat="50.551570" lon="6.212499">
        <ele>475.000000</ele>
        <time>2009-10-18T17:25:19Z</time>
      </trkpt>
      <trkpt lat="50.551615" lon="6.212718">
        <ele>478.400000</ele>
        <time>2009-10-18T17:25:24Z</time>
      </trkpt>
      <trkpt lat="50.551667" lon="6.212746">
        <ele>469.300000</ele>
        <time>2009-10-18T17:25:26Z</time>
      </trkpt>
      <trkpt lat="50.551797" lon="6.213009">
        <ele>460.100000</ele>
        <time>2009-10-18T17:25:32Z</time>
      </trkpt>
      <trkpt lat="50.551895" lon="6.212862">
        <ele>471.700000</ele>
        <time>2009-10-18T17:25:36Z</time>
      </trkpt>
      <trkpt lat="50.552135" lon="6.212913">
        <ele>501.000000</ele>
        <time>2009-10-18T17:25:44Z</time>
      </trkpt>
      <trkpt lat="50.552138" lon="6.213073">
        <ele>494.700000</ele>
        <time>2009-10-18T17:25:47Z</time>
      </trkpt>
      <trkpt lat="50.552243" lon="6.213525">
        <ele>485.600000</ele>
        <time>2009-10-18T17:25:56Z</time>
      </trkpt>
      <trkpt lat="50.552354" lon="6.213604">
        <ele>483.700000</ele>
        <time>2009-10-18T17:26:00Z</time>
      </trkpt>
      <trkpt lat="50.552441" lon="6.213840">
        <ele>482.200000</ele>
        <time>2009-10-18T17:26:05Z</time>
      </trkpt>
      <trkpt lat="50.552372" lon="6.213996">
        <ele>493.800000</ele>
        <time>2009-10-18T17:26:09Z</time>
      </trkpt>
      <trkpt lat="50.552469" lon="6.214388">
        <ele>472.100000</ele>
        <time>2009-10-18T17:26:17Z</time>
      </trkpt>
      <trkpt lat="50.552572" lon="6.214709">
        <ele>470.700000</ele>
        <time>2009-10-18T17:26:25Z</time>
      </trkpt>
      <trkpt lat="50.552659" lon="6.214857">
        <ele>472.100000</ele>
        <time>2009-10-18T17:26:28Z</time>
      </trkpt>
      <trkpt lat="50.552685" lon="6.215364">
        <ele>487.000000</ele>
        <time>2009-10-18T17:26:38Z</time>
      </trkpt>
      <trkpt lat="50.552749" lon="6.215510">
        <ele>493.300000</ele>
        <time>2009-10-18T17:26:42Z</time>
      </trkpt>
      <trkpt lat="50.552739" lon="6.215609">
        <ele>493.300000</ele>
        <time>2009-10-18T17:26:44Z</time>
      </trkpt>
      <trkpt lat="50.552607" lon="6.215853">
        <ele>477.400000</ele>
        <time>2009-10-18T17:26:50Z</time>
      </trkpt>
      <trkpt lat="50.552709" lon="6.216376">
        <ele>472.100000</ele>
        <time>2009-10-18T17:27:01Z</time>
      </trkpt>
      <trkpt lat="50.552506" lon="6.216860">
        <ele>501.000000</ele>
        <time>2009-10-18T17:27:12Z</time>
      </trkpt>
      <trkpt lat="50.552546" lon="6.216843">
        <ele>508.700000</ele>
        <time>2009-10-18T17:27:14Z</time>
      </trkpt>
      <trkpt lat="50.552510" lon="6.216950">
        <ele>508.200000</ele>
        <time>2009-10-18T17:27:16Z</time>
      </trkpt>
      <trkpt lat="50.552403" lon="6.217159">
        <ele>507.700000</ele>
        <time>2009-10-18T17:27:21Z</time>
      </trkpt>
      <trkpt lat="50.552324" lon="6.217143">
        <ele>493.300000</ele>
        <time>2009-10-18T17:27:24Z</time>
      </trkpt>
      <trkpt lat="50.552366" lon="6.217231">
        <ele>492.300000</ele>
        <time>2009-10-18T17:27:26Z</time>
      </trkpt>
      <trkpt lat="50.552253" lon="6.217318">
        <ele>463.500000</ele>
        <time>2009-10-18T17:27:30Z</time>
      </trkpt>
      <trkpt lat="50.552358" lon="6.217547">
        <ele>426.000000</ele>
        <time>2009-10-18T17:27:35Z</time>
      </trkpt>
      <trkpt lat="50.552391" lon="6.217511">
        <ele>420.700000</ele>
        <time>2009-10-18T17:27:37Z</time>
      </trkpt>
      <trkpt lat="50.552383" lon="6.217357">
        <ele>439.000000</ele>
        <time>2009-10-18T17:27:40Z</time>
      </trkpt>
      <trkpt lat="50.552357" lon="6.217443">
        <ele>449.600000</ele>
        <time>2009-10-18T17:27:42Z</time>
      </trkpt>
      <trkpt lat="50.552400" lon="6.217760">
        <ele>453.400000</ele>
        <time>2009-10-18T17:27:48Z</time>
      </trkpt>
      <trkpt lat="50.552369" lon="6.217895">
        <ele>435.600000</ele>
        <time>2009-10-18T17:27:51Z</time>
      </trkpt>
      <trkpt lat="50.552388" lon="6.218009">
        <ele>420.700000</ele>
        <time>2009-10-18T17:27:53Z</time>
      </trkpt>
      <trkpt lat="50.552052" lon="6.218384">
        <ele>448.600000</ele>
        <time>2009-10-18T17:28:06Z</time>
      </trkpt>
      <trkpt lat="50.551815" lon="6.218501">
        <ele>452.000000</ele>
        <time>2009-10-18T17:28:13Z</time>
      </trkpt>
      <trkpt lat="50.551687" lon="6.218710">
        <ele>441.900000</ele>
        <time>2009-10-18T17:28:19Z</time>
      </trkpt>
      <trkpt lat="50.551616" lon="6.218985">
        <ele>437.500000</ele>
        <time>2009-10-18T17:28:25Z</time>
      </trkpt>
      <trkpt lat="50.551604" lon="6.219338">
        <ele>437.500000</ele>
        <time>2009-10-18T17:28:32Z</time>
      </trkpt>
      <trkpt lat="50.551462" lon="6.220242">
        <ele>453.400000</ele>
        <time>2009-10-18T17:28:50Z</time>
      </trkpt>
      <trkpt lat="50.551489" lon="6.220898">
        <ele>454.800000</ele>
        <time>2009-10-18T17:29:03Z</time>
      </trkpt>
      <trkpt lat="50.551375" lon="6.221225">
        <ele>407.300000</ele>
        <time>2009-10-18T17:29:10Z</time>
      </trkpt>
      <trkpt lat="50.551432" lon="6.221377">
        <ele>372.600000</ele>
        <time>2009-10-18T17:29:14Z</time>
      </trkpt>
      <trkpt lat="50.551312" lon="6.221161">
        <ele>425.500000</ele>
        <time>2009-10-18T17:29:20Z</time>
      </trkpt>
      <trkpt lat="50.551421" lon="6.221156">
        <ele>435.600000</ele>
        <time>2009-10-18T17:29:23Z</time>
      </trkpt>
      <trkpt lat="50.551479" lon="6.221384">
        <ele>440.400000</ele>
        <time>2009-10-18T17:29:28Z</time>
      </trkpt>
      <trkpt lat="50.551410" lon="6.221927">
        <ele>458.200000</ele>
        <time>2009-10-18T17:29:39Z</time>
      </trkpt>
      <trkpt lat="50.551448" lon="6.222070">
        <ele>455.300000</ele>
        <time>2009-10-18T17:29:42Z</time>
      </trkpt>
      <trkpt lat="50.551436" lon="6.222342">
        <ele>462.500000</ele>
        <time>2009-10-18T17:29:47Z</time>
      </trkpt>
      <trkpt lat="50.551365" lon="6.222780">
        <ele>466.400000</ele>
        <time>2009-10-18T17:29:56Z</time>
      </trkpt>
      <trkpt lat="50.551297" lon="6.222881">
        <ele>473.100000</ele>
        <time>2009-10-18T17:29:59Z</time>
      </trkpt>
      <trkpt lat="50.551321" lon="6.223041">
        <ele>472.600000</ele>
        <time>2009-10-18T17:30:02Z</time>
      </trkpt>
      <trkpt lat="50.551278" lon="6.223267">
        <ele>472.600000</ele>
        <time>2009-10-18T17:30:07Z</time>
      </trkpt>
      <trkpt lat="50.551109" lon="6.223568">
        <ele>470.700000</ele>
        <time>2009-10-18T17:30:15Z</time>
      </trkpt>
      <trkpt lat="50.550967" lon="6.223729">
        <ele>477.400000</ele>
        <time>2009-10-18T17:30:20Z</time>
      </trkpt>
      <trkpt lat="50.550779" lon="6.223739">
        <ele>496.700000</ele>
        <time>2009-10-18T17:30:26Z</time>
      </trkpt>
      <trkpt lat="50.550387" lon="6.224027">
        <ele>503.900000</ele>
        <time>2009-10-18T17:30:39Z</time>
      </trkpt>
      <trkpt lat="50.550090" lon="6.223837">
        <ele>518.300000</ele>
        <time>2009-10-18T17:30:49Z</time>
      </trkpt>
      <trkpt lat="50.550080" lon="6.223755">
        <ele>515.900000</ele>
        <time>2009-10-18T17:30:51Z</time>
      </trkpt>
      <trkpt lat="50.549990" lon="6.223625">
        <ele>513.500000</ele>
        <time>2009-10-18T17:30:55Z</time>
      </trkpt>
      <trkpt lat="50.549995" lon="6.223403">
        <ele>511.600000</ele>
        <time>2009-10-18T17:30:59Z</time>
      </trkpt>
      <trkpt lat="50.549955" lon="6.223441">
        <ele>509.600000</ele>
        <time>2009-10-18T17:31:00Z</time>
      </trkpt>
      <trkpt lat="50.549939" lon="6.223393">
        <ele>521.700000</ele>
        <time>2009-10-18T17:31:01Z</time>
      </trkpt>
      <trkpt lat="50.549945" lon="6.223454">
        <ele>518.300000</ele>
        <time>2009-10-18T17:31:03Z</time>
      </trkpt>
      <trkpt lat="50.549953" lon="6.223431">
        <ele>514.900000</ele>
        <time>2009-10-18T17:31:03Z</time>
      </trkpt>
      <trkpt lat="50.550008" lon="6.223355">
        <ele>514.900000</ele>
        <time>2009-10-18T17:31:05Z</time>
      </trkpt>
      <trkpt lat="50.549979" lon="6.223324">
        <ele>515.900000</ele>
        <time>2009-10-18T17:31:06Z</time>
      </trkpt>
      <trkpt lat="50.549999" lon="6.223341">
        <ele>515.400000</ele>
        <time>2009-10-18T17:31:07Z</time>
      </trkpt>
      <trkpt lat="50.549959" lon="6.223396">
        <ele>509.600000</ele>
        <time>2009-10-18T17:31:09Z</time>
      </trkpt>
      <trkpt lat="50.550001" lon="6.223408">
        <ele>512.000000</ele>
        <time>2009-10-18T17:31:10Z</time>
      </trkpt>
      <trkpt lat="50.550096" lon="6.223816">
        <ele>508.200000</ele>
        <time>2009-10-18T17:31:19Z</time>
      </trkpt>
      <trkpt lat="50.550077" lon="6.223987">
        <ele>509.200000</ele>
        <time>2009-10-18T17:31:22Z</time>
      </trkpt>
      <trkpt lat="50.550120" lon="6.224175">
        <ele>505.800000</ele>
        <time>2009-10-18T17:31:26Z</time>
      </trkpt>
      <trkpt lat="50.550072" lon="6.224786">
        <ele>503.400000</ele>
        <time>2009-10-18T17:31:38Z</time>
      </trkpt>
      <trkpt lat="50.550097" lon="6.225063">
        <ele>503.900000</ele>
        <time>2009-10-18T17:31:44Z</time>
      </trkpt>
      <trkpt lat="50.550059" lon="6.225663">
        <ele>502.400000</ele>
        <time>2009-10-18T17:31:55Z</time>
      </trkpt>
      <trkpt lat="50.550097" lon="6.226404">
        <ele>498.100000</ele>
        <time>2009-10-18T17:32:10Z</time>
      </trkpt>
      <trkpt lat="50.550051" lon="6.226658">
        <ele>503.900000</ele>
        <time>2009-10-18T17:32:15Z</time>
      </trkpt>
      <trkpt lat="50.550082" lon="6.226888">
        <ele>501.500000</ele>
        <time>2009-10-18T17:32:20Z</time>
      </trkpt>
      <trkpt lat="50.550242" lon="6.227409">
        <ele>513.000000</ele>
        <time>2009-10-18T17:32:31Z</time>
      </trkpt>
      <trkpt lat="50.550309" lon="6.228246">
        <ele>505.300000</ele>
        <time>2009-10-18T17:32:48Z</time>
      </trkpt>
      <trkpt lat="50.550415" lon="6.228615">
        <ele>504.300000</ele>
        <time>2009-10-18T17:32:56Z</time>
      </trkpt>
      <trkpt lat="50.550578" lon="6.230150">
        <ele>491.400000</ele>
        <time>2009-10-18T17:33:26Z</time>
      </trkpt>
      <trkpt lat="50.550654" lon="6.230467">
        <ele>484.200000</ele>
        <time>2009-10-18T17:33:33Z</time>
      </trkpt>
      <trkpt lat="50.550680" lon="6.230913">
        <ele>479.400000</ele>
        <time>2009-10-18T17:33:42Z</time>
      </trkpt>
      <trkpt lat="50.550756" lon="6.231174">
        <ele>477.000000</ele>
        <time>2009-10-18T17:33:47Z</time>
      </trkpt>
      <trkpt lat="50.550926" lon="6.231468">
        <ele>481.800000</ele>
        <time>2009-10-18T17:33:55Z</time>
      </trkpt>
      <trkpt lat="50.551297" lon="6.231893">
        <ele>479.800000</ele>
        <time>2009-10-18T17:34:09Z</time>
      </trkpt>
      <trkpt lat="50.551610" lon="6.232336">
        <ele>463.000000</ele>
        <time>2009-10-18T17:34:23Z</time>
      </trkpt>
      <trkpt lat="50.551771" lon="6.232435">
        <ele>467.800000</ele>
        <time>2009-10-18T17:34:28Z</time>
      </trkpt>
      <trkpt lat="50.551898" lon="6.232777">
        <ele>463.000000</ele>
        <time>2009-10-18T17:34:36Z</time>
      </trkpt>
      <trkpt lat="50.551880" lon="6.232879">
        <ele>461.600000</ele>
        <time>2009-10-18T17:34:38Z</time>
      </trkpt>
      <trkpt lat="50.551933" lon="6.233102">
        <ele>455.300000</ele>
        <time>2009-10-18T17:34:42Z</time>
      </trkpt>
      <trkpt lat="50.552109" lon="6.233236">
        <ele>453.900000</ele>
        <time>2009-10-18T17:34:48Z</time>
      </trkpt>
      <trkpt lat="50.552168" lon="6.233415">
        <ele>453.900000</ele>
        <time>2009-10-18T17:34:52Z</time>
      </trkpt>
      <trkpt lat="50.552336" lon="6.233543">
        <ele>451.000000</ele>
        <time>2009-10-18T17:34:58Z</time>
      </trkpt>
      <trkpt lat="50.552396" lon="6.233646">
        <ele>447.600000</ele>
        <time>2009-10-18T17:35:01Z</time>
      </trkpt>
      <trkpt lat="50.552652" lon="6.233820">
        <ele>436.600000</ele>
        <time>2009-10-18T17:35:10Z</time>
      </trkpt>
      <trkpt lat="50.552833" lon="6.233694">
        <ele>429.800000</ele>
        <time>2009-10-18T17:35:16Z</time>
      </trkpt>
      <trkpt lat="50.552890" lon="6.233715">
        <ele>428.400000</ele>
        <time>2009-10-18T17:35:17Z</time>
      </trkpt>
      <trkpt lat="50.552963" lon="6.233882">
        <ele>422.200000</ele>
        <time>2009-10-18T17:35:21Z</time>
      </trkpt>
      <trkpt lat="50.552937" lon="6.234417">
        <ele>416.900000</ele>
        <time>2009-10-18T17:35:32Z</time>
      </trkpt>
      <trkpt lat="50.552865" lon="6.234561">
        <ele>414.500000</ele>
        <time>2009-10-18T17:35:36Z</time>
      </trkpt>
      <trkpt lat="50.552852" lon="6.234683">
        <ele>413.500000</ele>
        <time>2009-10-18T17:35:38Z</time>
      </trkpt>
      <trkpt lat="50.552783" lon="6.234737">
        <ele>414.900000</ele>
        <time>2009-10-18T17:35:40Z</time>
      </trkpt>
      <trkpt lat="50.552769" lon="6.234611">
        <ele>414.900000</ele>
        <time>2009-10-18T17:35:43Z</time>
      </trkpt>
      <trkpt lat="50.552837" lon="6.234700">
        <ele>417.300000</ele>
        <time>2009-10-18T17:35:46Z</time>
      </trkpt>
      <trkpt lat="50.552913" lon="6.234922">
        <ele>414.500000</ele>
        <time>2009-10-18T17:35:51Z</time>
      </trkpt>
      <trkpt lat="50.553118" lon="6.235137">
        <ele>421.700000</ele>
        <time>2009-10-18T17:35:58Z</time>
      </trkpt>
      <trkpt lat="50.553559" lon="6.235876">
        <ele>415.400000</ele>
        <time>2009-10-18T17:36:18Z</time>
      </trkpt>
      <trkpt lat="50.553654" lon="6.236134">
        <ele>413.000000</ele>
        <time>2009-10-18T17:36:24Z</time>
      </trkpt>
      <trkpt lat="50.553690" lon="6.236560">
        <ele>406.800000</ele>
        <time>2009-10-18T17:36:32Z</time>
      </trkpt>
      <trkpt lat="50.553570" lon="6.237304">
        <ele>400.500000</ele>
        <time>2009-10-18T17:36:48Z</time>
      </trkpt>
      <trkpt lat="50.553446" lon="6.237905">
        <ele>397.600000</ele>
        <time>2009-10-18T17:37:00Z</time>
      </trkpt>
      <trkpt lat="50.553143" lon="6.238597">
        <ele>408.700000</ele>
        <time>2009-10-18T17:37:16Z</time>
      </trkpt>
      <trkpt lat="50.553011" lon="6.238751">
        <ele>405.300000</ele>
        <time>2009-10-18T17:37:22Z</time>
      </trkpt>
      <trkpt lat="50.552825" lon="6.238674">
        <ele>408.200000</ele>
        <time>2009-10-18T17:37:27Z</time>
      </trkpt>
      <trkpt lat="50.552723" lon="6.238464">
        <ele>409.700000</ele>
        <time>2009-10-18T17:37:33Z</time>
      </trkpt>
      <trkpt lat="50.552440" lon="6.238187">
        <ele>411.600000</ele>
        <time>2009-10-18T17:37:43Z</time>
      </trkpt>
      <trkpt lat="50.552307" lon="6.238318">
        <ele>417.300000</ele>
        <time>2009-10-18T17:37:48Z</time>
      </trkpt>
      <trkpt lat="50.552250" lon="6.238320">
        <ele>416.400000</ele>
        <time>2009-10-18T17:37:50Z</time>
      </trkpt>
      <trkpt lat="50.551857" lon="6.238647">
        <ele>415.900000</ele>
        <time>2009-10-18T17:38:03Z</time>
      </trkpt>
      <trkpt lat="50.551592" lon="6.239107">
        <ele>429.400000</ele>
        <time>2009-10-18T17:38:16Z</time>
      </trkpt>
      <trkpt lat="50.551480" lon="6.239450">
        <ele>431.300000</ele>
        <time>2009-10-18T17:38:23Z</time>
      </trkpt>
      <trkpt lat="50.551376" lon="6.239959">
        <ele>442.300000</ele>
        <time>2009-10-18T17:38:34Z</time>
      </trkpt>
      <trkpt lat="50.551317" lon="6.240051">
        <ele>439.900000</ele>
        <time>2009-10-18T17:38:36Z</time>
      </trkpt>
      <trkpt lat="50.551295" lon="6.240211">
        <ele>445.200000</ele>
        <time>2009-10-18T17:38:39Z</time>
      </trkpt>
      <trkpt lat="50.551319" lon="6.240222">
        <ele>453.900000</ele>
        <time>2009-10-18T17:38:40Z</time>
      </trkpt>
      <trkpt lat="50.551242" lon="6.240290">
        <ele>448.100000</ele>
        <time>2009-10-18T17:38:43Z</time>
      </trkpt>
      <trkpt lat="50.551231" lon="6.240620">
        <ele>450.000000</ele>
        <time>2009-10-18T17:38:49Z</time>
      </trkpt>
      <trkpt lat="50.551143" lon="6.240793">
        <ele>436.100000</ele>
        <time>2009-10-18T17:38:54Z</time>
      </trkpt>
      <trkpt lat="50.551123" lon="6.241024">
        <ele>442.300000</ele>
        <time>2009-10-18T17:38:58Z</time>
      </trkpt>
      <trkpt lat="50.551178" lon="6.241528">
        <ele>454.800000</ele>
        <time>2009-10-18T17:39:08Z</time>
      </trkpt>
      <trkpt lat="50.551121" lon="6.241691">
        <ele>459.200000</ele>
        <time>2009-10-18T17:39:12Z</time>
      </trkpt>
      <trkpt lat="50.551147" lon="6.241879">
        <ele>461.100000</ele>
        <time>2009-10-18T17:39:16Z</time>
      </trkpt>
      <trkpt lat="50.551239" lon="6.241942">
        <ele>465.900000</ele>
        <time>2009-10-18T17:39:19Z</time>
      </trkpt>
      <trkpt lat="50.551091" lon="6.241942">
        <ele>455.800000</ele>
        <time>2009-10-18T17:39:24Z</time>
      </trkpt>
      <trkpt lat="50.551037" lon="6.241994">
        <ele>457.200000</ele>
        <time>2009-10-18T17:39:25Z</time>
      </trkpt>
      <trkpt lat="50.550906" lon="6.242200">
        <ele>462.500000</ele>
        <time>2009-10-18T17:39:31Z</time>
      </trkpt>
      <trkpt lat="50.550924" lon="6.242303">
        <ele>468.800000</ele>
        <time>2009-10-18T17:39:33Z</time>
      </trkpt>
      <trkpt lat="50.551040" lon="6.242496">
        <ele>460.600000</ele>
        <time>2009-10-18T17:39:39Z</time>
      </trkpt>
      <trkpt lat="50.551119" lon="6.242815">
        <ele>459.200000</ele>
        <time>2009-10-18T17:39:45Z</time>
      </trkpt>
      <trkpt lat="50.551236" lon="6.243027">
        <ele>456.800000</ele>
        <time>2009-10-18T17:39:51Z</time>
      </trkpt>
      <trkpt lat="50.551390" lon="6.243153">
        <ele>446.700000</ele>
        <time>2009-10-18T17:39:56Z</time>
      </trkpt>
      <trkpt lat="50.551724" lon="6.243203">
        <ele>464.900000</ele>
        <time>2009-10-18T17:40:07Z</time>
      </trkpt>
      <trkpt lat="50.551926" lon="6.243316">
        <ele>468.300000</ele>
        <time>2009-10-18T17:40:13Z</time>
      </trkpt>
      <trkpt lat="50.552377" lon="6.243424">
        <ele>462.100000</ele>
        <time>2009-10-18T17:40:27Z</time>
      </trkpt>
      <trkpt lat="50.552503" lon="6.243521">
        <ele>463.000000</ele>
        <time>2009-10-18T17:40:32Z</time>
      </trkpt>
      <trkpt lat="50.552424" lon="6.243920">
        <ele>459.200000</ele>
        <time>2009-10-18T17:40:40Z</time>
      </trkpt>
      <trkpt lat="50.552298" lon="6.244146">
        <ele>464.000000</ele>
        <time>2009-10-18T17:40:46Z</time>
      </trkpt>
      <trkpt lat="50.552044" lon="6.244227">
        <ele>465.400000</ele>
        <time>2009-10-18T17:40:54Z</time>
      </trkpt>
      <trkpt lat="50.551974" lon="6.244156">
        <ele>470.200000</ele>
        <time>2009-10-18T17:40:56Z</time>
      </trkpt>
      <trkpt lat="50.551829" lon="6.244186">
        <ele>472.100000</ele>
        <time>2009-10-18T17:41:01Z</time>
      </trkpt>
      <trkpt lat="50.551726" lon="6.244054">
        <ele>471.200000</ele>
        <time>2009-10-18T17:41:05Z</time>
      </trkpt>
      <trkpt lat="50.551317" lon="6.243870">
        <ele>477.000000</ele>
        <time>2009-10-18T17:41:18Z</time>
      </trkpt>
      <trkpt lat="50.551013" lon="6.243849">
        <ele>482.200000</ele>
        <time>2009-10-18T17:41:27Z</time>
      </trkpt>
      <trkpt lat="50.550960" lon="6.243910">
        <ele>482.200000</ele>
        <time>2009-10-18T17:41:30Z</time>
      </trkpt>
      <trkpt lat="50.550822" lon="6.243902">
        <ele>483.200000</ele>
        <time>2009-10-18T17:41:34Z</time>
      </trkpt>
      <trkpt lat="50.550444" lon="6.244237">
        <ele>490.400000</ele>
        <time>2009-10-18T17:41:47Z</time>
      </trkpt>
      <trkpt lat="50.550223" lon="6.244370">
        <ele>492.800000</ele>
        <time>2009-10-18T17:41:55Z</time>
      </trkpt>
      <trkpt lat="50.549831" lon="6.244444">
        <ele>496.200000</ele>
        <time>2009-10-18T17:42:07Z</time>
      </trkpt>
      <trkpt lat="50.549119" lon="6.244745">
        <ele>499.100000</ele>
        <time>2009-10-18T17:42:30Z</time>
      </trkpt>
      <trkpt lat="50.548102" lon="6.245500">
        <ele>508.200000</ele>
        <time>2009-10-18T17:43:04Z</time>
      </trkpt>
      <trkpt lat="50.547895" lon="6.245592">
        <ele>509.600000</ele>
        <time>2009-10-18T17:43:11Z</time>
      </trkpt>
      <trkpt lat="50.547820" lon="6.245712">
        <ele>510.100000</ele>
        <time>2009-10-18T17:43:14Z</time>
      </trkpt>
      <trkpt lat="50.547236" lon="6.246155">
        <ele>515.400000</ele>
        <time>2009-10-18T17:43:34Z</time>
      </trkpt>
      <trkpt lat="50.547126" lon="6.246071">
        <ele>515.900000</ele>
        <time>2009-10-18T17:43:38Z</time>
      </trkpt>
      <trkpt lat="50.546934" lon="6.245187">
        <ele>518.800000</ele>
        <time>2009-10-18T17:43:56Z</time>
      </trkpt>
      <trkpt lat="50.546544" lon="6.243102">
        <ele>520.200000</ele>
        <time>2009-10-18T17:44:39Z</time>
      </trkpt>
      <trkpt lat="50.546391" lon="6.242196">
        <ele>526.900000</ele>
        <time>2009-10-18T17:44:58Z</time>
      </trkpt>
      <trkpt lat="50.546235" lon="6.241240">
        <ele>522.600000</ele>
        <time>2009-10-18T17:45:17Z</time>
      </trkpt>
      <trkpt lat="50.546214" lon="6.240740">
        <ele>519.200000</ele>
        <time>2009-10-18T17:45:27Z</time>
      </trkpt>
      <trkpt lat="50.546334" lon="6.239572">
        <ele>516.400000</ele>
        <time>2009-10-18T17:45:50Z</time>
      </trkpt>
      <trkpt lat="50.546355" lon="6.238882">
        <ele>522.100000</ele>
        <time>2009-10-18T17:46:04Z</time>
      </trkpt>
      <trkpt lat="50.546114" lon="6.237904">
        <ele>527.900000</ele>
        <time>2009-10-18T17:46:24Z</time>
      </trkpt>
      <trkpt lat="50.546148" lon="6.237059">
        <ele>525.000000</ele>
        <time>2009-10-18T17:46:41Z</time>
      </trkpt>
      <trkpt lat="50.546077" lon="6.236682">
        <ele>525.000000</ele>
        <time>2009-10-18T17:46:49Z</time>
      </trkpt>
      <trkpt lat="50.546036" lon="6.235974">
        <ele>520.200000</ele>
        <time>2009-10-18T17:47:03Z</time>
      </trkpt>
      <trkpt lat="50.546056" lon="6.235256">
        <ele>519.700000</ele>
        <time>2009-10-18T17:47:17Z</time>
      </trkpt>
      <trkpt lat="50.546099" lon="6.234916">
        <ele>514.000000</ele>
        <time>2009-10-18T17:47:24Z</time>
      </trkpt>
      <trkpt lat="50.546234" lon="6.234442">
        <ele>509.200000</ele>
        <time>2009-10-18T17:47:34Z</time>
      </trkpt>
      <trkpt lat="50.546336" lon="6.234229">
        <ele>505.300000</ele>
        <time>2009-10-18T17:47:39Z</time>
      </trkpt>
      <trkpt lat="50.546608" lon="6.233969">
        <ele>488.500000</ele>
        <time>2009-10-18T17:47:49Z</time>
      </trkpt>
      <trkpt lat="50.546710" lon="6.233720">
        <ele>498.100000</ele>
        <time>2009-10-18T17:47:55Z</time>
      </trkpt>
      <trkpt lat="50.547022" lon="6.233256">
        <ele>482.700000</ele>
        <time>2009-10-18T17:48:08Z</time>
      </trkpt>
      <trkpt lat="50.547112" lon="6.232947">
        <ele>493.300000</ele>
        <time>2009-10-18T17:48:15Z</time>
      </trkpt>
      <trkpt lat="50.547107" lon="6.232787">
        <ele>499.100000</ele>
        <time>2009-10-18T17:48:18Z</time>
      </trkpt>
      <trkpt lat="50.547139" lon="6.232970">
        <ele>495.200000</ele>
        <time>2009-10-18T17:48:21Z</time>
      </trkpt>
      <trkpt lat="50.547135" lon="6.232885">
        <ele>494.700000</ele>
        <time>2009-10-18T17:48:23Z</time>
      </trkpt>
      <trkpt lat="50.547037" lon="6.233190">
        <ele>505.300000</ele>
        <time>2009-10-18T17:48:30Z</time>
      </trkpt>
      <trkpt lat="50.546700" lon="6.233503">
        <ele>517.800000</ele>
        <time>2009-10-18T17:48:42Z</time>
      </trkpt>
      <trkpt lat="50.546296" lon="6.233612">
        <ele>525.000000</ele>
        <time>2009-10-18T17:48:55Z</time>
      </trkpt>
      <trkpt lat="50.546129" lon="6.233599">
        <ele>519.200000</ele>
        <time>2009-10-18T17:49:00Z</time>
      </trkpt>
      <trkpt lat="50.545607" lon="6.233780">
        <ele>510.100000</ele>
        <time>2009-10-18T17:49:16Z</time>
      </trkpt>
      <trkpt lat="50.545263" lon="6.233686">
        <ele>494.700000</ele>
        <time>2009-10-18T17:49:27Z</time>
      </trkpt>
      <trkpt lat="50.545308" lon="6.233716">
        <ele>495.200000</ele>
        <time>2009-10-18T17:49:29Z</time>
      </trkpt>
      <trkpt lat="50.545278" lon="6.234083">
        <ele>502.400000</ele>
        <time>2009-10-18T17:49:36Z</time>
      </trkpt>
      <trkpt lat="50.545337" lon="6.234406">
        <ele>500.000000</ele>
        <time>2009-10-18T17:49:43Z</time>
      </trkpt>
      <trkpt lat="50.545279" lon="6.234552">
        <ele>505.300000</ele>
        <time>2009-10-18T17:49:46Z</time>
      </trkpt>
      <trkpt lat="50.545155" lon="6.235426">
        <ele>514.000000</ele>
        <time>2009-10-18T17:50:04Z</time>
      </trkpt>
      <trkpt lat="50.545276" lon="6.236270">
        <ele>498.600000</ele>
        <time>2009-10-18T17:50:21Z</time>
      </trkpt>
      <trkpt lat="50.545407" lon="6.236616">
        <ele>494.300000</ele>
        <time>2009-10-18T17:50:28Z</time>
      </trkpt>
      <trkpt lat="50.545690" lon="6.237787">
        <ele>494.700000</ele>
        <time>2009-10-18T17:50:53Z</time>
      </trkpt>
      <trkpt lat="50.545751" lon="6.238285">
        <ele>503.900000</ele>
        <time>2009-10-18T17:51:03Z</time>
      </trkpt>
      <trkpt lat="50.545762" lon="6.238880">
        <ele>500.000000</ele>
        <time>2009-10-18T17:51:15Z</time>
      </trkpt>
      <trkpt lat="50.545702" lon="6.239175">
        <ele>501.900000</ele>
        <time>2009-10-18T17:51:21Z</time>
      </trkpt>
      <trkpt lat="50.545644" lon="6.239647">
        <ele>501.000000</ele>
        <time>2009-10-18T17:51:30Z</time>
      </trkpt>
      <trkpt lat="50.545289" lon="6.240537">
        <ele>506.800000</ele>
        <time>2009-10-18T17:51:51Z</time>
      </trkpt>
      <trkpt lat="50.545101" lon="6.240803">
        <ele>507.200000</ele>
        <time>2009-10-18T17:51:59Z</time>
      </trkpt>
      <trkpt lat="50.544471" lon="6.240692">
        <ele>492.300000</ele>
        <time>2009-10-18T17:52:18Z</time>
      </trkpt>
      <trkpt lat="50.544233" lon="6.240687">
        <ele>497.100000</ele>
        <time>2009-10-18T17:52:26Z</time>
      </trkpt>
      <trkpt lat="50.544014" lon="6.240417">
        <ele>498.600000</ele>
        <time>2009-10-18T17:52:34Z</time>
      </trkpt>
      <trkpt lat="50.543503" lon="6.239605">
        <ele>489.400000</ele>
        <time>2009-10-18T17:52:57Z</time>
      </trkpt>
      <trkpt lat="50.543235" lon="6.239033">
        <ele>486.100000</ele>
        <time>2009-10-18T17:53:11Z</time>
      </trkpt>
      <trkpt lat="50.543236" lon="6.238844">
        <ele>477.400000</ele>
        <time>2009-10-18T17:53:14Z</time>
      </trkpt>
      <trkpt lat="50.542681" lon="6.238190">
        <ele>464.500000</ele>
        <time>2009-10-18T17:53:36Z</time>
      </trkpt>
      <trkpt lat="50.542521" lon="6.238232">
        <ele>461.100000</ele>
        <time>2009-10-18T17:53:41Z</time>
      </trkpt>
      <trkpt lat="50.542563" lon="6.238617">
        <ele>458.200000</ele>
        <time>2009-10-18T17:53:49Z</time>
      </trkpt>
      <trkpt lat="50.542722" lon="6.239173">
        <ele>459.200000</ele>
        <time>2009-10-18T17:54:01Z</time>
      </trkpt>
      <trkpt lat="50.542860" lon="6.239331">
        <ele>452.900000</ele>
        <time>2009-10-18T17:54:06Z</time>
      </trkpt>
      <trkpt lat="50.542818" lon="6.239382">
        <ele>447.200000</ele>
        <time>2009-10-18T17:54:07Z</time>
      </trkpt>
      <trkpt lat="50.542818" lon="6.239434">
        <ele>453.900000</ele>
        <time>2009-10-18T17:54:08Z</time>
      </trkpt>
      <trkpt lat="50.542917" lon="6.239762">
        <ele>454.800000</ele>
        <time>2009-10-18T17:54:16Z</time>
      </trkpt>
      <trkpt lat="50.542987" lon="6.239958">
        <ele>456.300000</ele>
        <time>2009-10-18T17:54:20Z</time>
      </trkpt>
      <trkpt lat="50.543129" lon="6.240182">
        <ele>465.900000</ele>
        <time>2009-10-18T17:54:26Z</time>
      </trkpt>
      <trkpt lat="50.543256" lon="6.240564">
        <ele>463.000000</ele>
        <time>2009-10-18T17:54:35Z</time>
      </trkpt>
      <trkpt lat="50.543293" lon="6.240697">
        <ele>466.900000</ele>
        <time>2009-10-18T17:54:38Z</time>
      </trkpt>
      <trkpt lat="50.543297" lon="6.240982">
        <ele>461.600000</ele>
        <time>2009-10-18T17:54:43Z</time>
      </trkpt>
      <trkpt lat="50.543228" lon="6.241188">
        <ele>454.400000</ele>
        <time>2009-10-18T17:54:48Z</time>
      </trkpt>
      <trkpt lat="50.543093" lon="6.241390">
        <ele>453.900000</ele>
        <time>2009-10-18T17:54:54Z</time>
      </trkpt>
      <trkpt lat="50.542900" lon="6.241813">
        <ele>454.800000</ele>
        <time>2009-10-18T17:55:04Z</time>
      </trkpt>
      <trkpt lat="50.542578" lon="6.241931">
        <ele>473.100000</ele>
        <time>2009-10-18T17:55:14Z</time>
      </trkpt>
      <trkpt lat="50.542342" lon="6.242152">
        <ele>460.100000</ele>
        <time>2009-10-18T17:55:22Z</time>
      </trkpt>
      <trkpt lat="50.542081" lon="6.242266">
        <ele>453.400000</ele>
        <time>2009-10-18T17:55:31Z</time>
      </trkpt>
      <trkpt lat="50.541896" lon="6.242279">
        <ele>452.400000</ele>
        <time>2009-10-18T17:55:37Z</time>
      </trkpt>
      <trkpt lat="50.541658" lon="6.242205">
        <ele>460.600000</ele>
        <time>2009-10-18T17:55:44Z</time>
      </trkpt>
      <trkpt lat="50.541526" lon="6.242079">
        <ele>462.100000</ele>
        <time>2009-10-18T17:55:49Z</time>
      </trkpt>
      <trkpt lat="50.541252" lon="6.242010">
        <ele>464.000000</ele>
        <time>2009-10-18T17:55:57Z</time>
      </trkpt>
      <trkpt lat="50.540932" lon="6.241755">
        <ele>473.100000</ele>
        <time>2009-10-18T17:56:09Z</time>
      </trkpt>
      <trkpt lat="50.540792" lon="6.241549">
        <ele>470.200000</ele>
        <time>2009-10-18T17:56:14Z</time>
      </trkpt>
      <trkpt lat="50.540655" lon="6.241472">
        <ele>435.100000</ele>
        <time>2009-10-18T17:56:19Z</time>
      </trkpt>
      <trkpt lat="50.540473" lon="6.241164">
        <ele>453.400000</ele>
        <time>2009-10-18T17:56:27Z</time>
      </trkpt>
      <trkpt lat="50.540326" lon="6.240766">
        <ele>457.200000</ele>
        <time>2009-10-18T17:56:36Z</time>
      </trkpt>
      <trkpt lat="50.540149" lon="6.240562">
        <ele>457.200000</ele>
        <time>2009-10-18T17:56:43Z</time>
      </trkpt>
      <trkpt lat="50.540021" lon="6.240612">
        <ele>463.500000</ele>
        <time>2009-10-18T17:56:47Z</time>
      </trkpt>
      <trkpt lat="50.539801" lon="6.241034">
        <ele>474.100000</ele>
        <time>2009-10-18T17:56:58Z</time>
      </trkpt>
      <trkpt lat="50.539820" lon="6.240945">
        <ele>476.000000</ele>
        <time>2009-10-18T17:57:00Z</time>
      </trkpt>
      <trkpt lat="50.539787" lon="6.240761">
        <ele>477.000000</ele>
        <time>2009-10-18T17:57:03Z</time>
      </trkpt>
      <trkpt lat="50.539839" lon="6.240410">
        <ele>478.400000</ele>
        <time>2009-10-18T17:57:11Z</time>
      </trkpt>
      <trkpt lat="50.539835" lon="6.240242">
        <ele>475.000000</ele>
        <time>2009-10-18T17:57:14Z</time>
      </trkpt>
      <trkpt lat="50.539783" lon="6.240152">
        <ele>472.100000</ele>
        <time>2009-10-18T17:57:16Z</time>
      </trkpt>
      <trkpt lat="50.539536" lon="6.239999">
        <ele>467.300000</ele>
        <time>2009-10-18T17:57:24Z</time>
      </trkpt>
      <trkpt lat="50.539165" lon="6.239946">
        <ele>469.700000</ele>
        <time>2009-10-18T17:57:36Z</time>
      </trkpt>
      <trkpt lat="50.539157" lon="6.239552">
        <ele>469.700000</ele>
        <time>2009-10-18T17:57:44Z</time>
      </trkpt>
      <trkpt lat="50.539212" lon="6.238851">
        <ele>468.300000</ele>
        <time>2009-10-18T17:57:58Z</time>
      </trkpt>
      <trkpt lat="50.539291" lon="6.238431">
        <ele>463.000000</ele>
        <time>2009-10-18T17:58:06Z</time>
      </trkpt>
      <trkpt lat="50.539359" lon="6.238323">
        <ele>463.500000</ele>
        <time>2009-10-18T17:58:09Z</time>
      </trkpt>
      <trkpt lat="50.539752" lon="6.238233">
        <ele>470.200000</ele>
        <time>2009-10-18T17:58:21Z</time>
      </trkpt>
      <trkpt lat="50.539978" lon="6.238398">
        <ele>465.900000</ele>
        <time>2009-10-18T17:58:29Z</time>
      </trkpt>
      <trkpt lat="50.540041" lon="6.238382">
        <ele>466.400000</ele>
        <time>2009-10-18T17:58:31Z</time>
      </trkpt>
      <trkpt lat="50.540396" lon="6.238674">
        <ele>471.700000</ele>
        <time>2009-10-18T17:58:44Z</time>
      </trkpt>
      <trkpt lat="50.540491" lon="6.238676">
        <ele>469.700000</ele>
        <time>2009-10-18T17:58:46Z</time>
      </trkpt>
      <trkpt lat="50.540673" lon="6.238508">
        <ele>467.800000</ele>
        <time>2009-10-18T17:58:53Z</time>
      </trkpt>
      <trkpt lat="50.540692" lon="6.238380">
        <ele>465.900000</ele>
        <time>2009-10-18T17:58:56Z</time>
      </trkpt>
      <trkpt lat="50.540664" lon="6.238275">
        <ele>469.300000</ele>
        <time>2009-10-18T17:58:58Z</time>
      </trkpt>
      <trkpt lat="50.540607" lon="6.238164">
        <ele>476.500000</ele>
        <time>2009-10-18T17:59:01Z</time>
      </trkpt>
      <trkpt lat="50.540559" lon="6.238172">
        <ele>480.800000</ele>
        <time>2009-10-18T17:59:02Z</time>
      </trkpt>
      <trkpt lat="50.540487" lon="6.238017">
        <ele>481.800000</ele>
        <time>2009-10-18T17:59:06Z</time>
      </trkpt>
      <trkpt lat="50.540346" lon="6.237465">
        <ele>486.100000</ele>
        <time>2009-10-18T17:59:18Z</time>
      </trkpt>
      <trkpt lat="50.540467" lon="6.236476">
        <ele>486.600000</ele>
        <time>2009-10-18T17:59:37Z</time>
      </trkpt>
      <trkpt lat="50.540664" lon="6.235679">
        <ele>489.000000</ele>
        <time>2009-10-18T17:59:54Z</time>
      </trkpt>
      <trkpt lat="50.540654" lon="6.235075">
        <ele>493.800000</ele>
        <time>2009-10-18T18:00:06Z</time>
      </trkpt>
      <trkpt lat="50.540594" lon="6.234601">
        <ele>496.700000</ele>
        <time>2009-10-18T18:00:16Z</time>
      </trkpt>
      <trkpt lat="50.540419" lon="6.234080">
        <ele>507.700000</ele>
        <time>2009-10-18T18:00:27Z</time>
      </trkpt>
      <trkpt lat="50.540116" lon="6.232797">
        <ele>520.700000</ele>
        <time>2009-10-18T18:00:54Z</time>
      </trkpt>
      <trkpt lat="50.540008" lon="6.232526">
        <ele>525.000000</ele>
        <time>2009-10-18T18:01:00Z</time>
      </trkpt>
      <trkpt lat="50.539870" lon="6.232321">
        <ele>534.100000</ele>
        <time>2009-10-18T18:01:06Z</time>
      </trkpt>
      <trkpt lat="50.539724" lon="6.231831">
        <ele>536.600000</ele>
        <time>2009-10-18T18:01:17Z</time>
      </trkpt>
      <trkpt lat="50.539589" lon="6.231578">
        <ele>537.500000</ele>
        <time>2009-10-18T18:01:23Z</time>
      </trkpt>
      <trkpt lat="50.539484" lon="6.231482">
        <ele>532.700000</ele>
        <time>2009-10-18T18:01:27Z</time>
      </trkpt>
      <trkpt lat="50.538750" lon="6.231293">
        <ele>545.200000</ele>
        <time>2009-10-18T18:01:50Z</time>
      </trkpt>
      <trkpt lat="50.538710" lon="6.231145">
        <ele>544.700000</ele>
        <time>2009-10-18T18:01:53Z</time>
      </trkpt>
      <trkpt lat="50.538804" lon="6.230997">
        <ele>534.100000</ele>
        <time>2009-10-18T18:01:57Z</time>
      </trkpt>
      <trkpt lat="50.538770" lon="6.230681">
        <ele>536.600000</ele>
        <time>2009-10-18T18:02:04Z</time>
      </trkpt>
      <trkpt lat="50.538730" lon="6.230591">
        <ele>542.800000</ele>
        <time>2009-10-18T18:02:06Z</time>
      </trkpt>
      <trkpt lat="50.538756" lon="6.230297">
        <ele>539.900000</ele>
        <time>2009-10-18T18:02:12Z</time>
      </trkpt>
      <trkpt lat="50.538661" lon="6.229930">
        <ele>542.300000</ele>
        <time>2009-10-18T18:02:19Z</time>
      </trkpt>
      <trkpt lat="50.538520" lon="6.229743">
        <ele>540.900000</ele>
        <time>2009-10-18T18:02:25Z</time>
      </trkpt>
      <trkpt lat="50.538162" lon="6.229516">
        <ele>542.800000</ele>
        <time>2009-10-18T18:02:37Z</time>
      </trkpt>
      <trkpt lat="50.538112" lon="6.228852">
        <ele>541.400000</ele>
        <time>2009-10-18T18:02:50Z</time>
      </trkpt>
      <trkpt lat="50.538113" lon="6.228509">
        <ele>538.000000</ele>
        <time>2009-10-18T18:02:57Z</time>
      </trkpt>
      <trkpt lat="50.538158" lon="6.228309">
        <ele>536.600000</ele>
        <time>2009-10-18T18:03:01Z</time>
      </trkpt>
      <trkpt lat="50.538719" lon="6.227379">
        <ele>529.300000</ele>
        <time>2009-10-18T18:03:26Z</time>
      </trkpt>
      <trkpt lat="50.539167" lon="6.226931">
        <ele>530.300000</ele>
        <time>2009-10-18T18:03:43Z</time>
      </trkpt>
      <trkpt lat="50.539355" lon="6.226832">
        <ele>531.700000</ele>
        <time>2009-10-18T18:03:49Z</time>
      </trkpt>
      <trkpt lat="50.539774" lon="6.227739">
        <ele>541.400000</ele>
        <time>2009-10-18T18:04:11Z</time>
      </trkpt>
      <trkpt lat="50.540822" lon="6.230467">
        <ele>526.900000</ele>
        <time>2009-10-18T18:05:14Z</time>
      </trkpt>
      <trkpt lat="50.541444" lon="6.231855">
        <ele>528.400000</ele>
        <time>2009-10-18T18:05:47Z</time>
      </trkpt>
      <trkpt lat="50.541900" lon="6.232768">
        <ele>514.000000</ele>
        <time>2009-10-18T18:06:10Z</time>
      </trkpt>
      <trkpt lat="50.542158" lon="6.232901">
        <ele>502.400000</ele>
        <time>2009-10-18T18:06:18Z</time>
      </trkpt>
      <trkpt lat="50.542110" lon="6.232818">
        <ele>500.000000</ele>
        <time>2009-10-18T18:06:20Z</time>
      </trkpt>
      <trkpt lat="50.542551" lon="6.231891">
        <ele>503.400000</ele>
        <time>2009-10-18T18:06:43Z</time>
      </trkpt>
      <trkpt lat="50.542724" lon="6.231541">
        <ele>508.200000</ele>
        <time>2009-10-18T18:06:52Z</time>
      </trkpt>
      <trkpt lat="50.542936" lon="6.231281">
        <ele>512.500000</ele>
        <time>2009-10-18T18:07:00Z</time>
      </trkpt>
      <trkpt lat="50.543051" lon="6.230885">
        <ele>508.700000</ele>
        <time>2009-10-18T18:07:09Z</time>
      </trkpt>
      <trkpt lat="50.543463" lon="6.230163">
        <ele>508.700000</ele>
        <time>2009-10-18T18:07:28Z</time>
      </trkpt>
      <trkpt lat="50.543900" lon="6.229743">
        <ele>511.100000</ele>
        <time>2009-10-18T18:07:44Z</time>
      </trkpt>
      <trkpt lat="50.544462" lon="6.229336">
        <ele>514.400000</ele>
        <time>2009-10-18T18:08:03Z</time>
      </trkpt>
      <trkpt lat="50.545095" lon="6.228963">
        <ele>518.800000</ele>
        <time>2009-10-18T18:08:24Z</time>
      </trkpt>
      <trkpt lat="50.545498" lon="6.228943">
        <ele>522.100000</ele>
        <time>2009-10-18T18:08:36Z</time>
      </trkpt>
      <trkpt lat="50.545600" lon="6.228853">
        <ele>524.100000</ele>
        <time>2009-10-18T18:08:40Z</time>
      </trkpt>
      <trkpt lat="50.545645" lon="6.228898">
        <ele>525.500000</ele>
        <time>2009-10-18T18:08:41Z</time>
      </trkpt>
      <trkpt lat="50.545672" lon="6.229053">
        <ele>516.400000</ele>
        <time>2009-10-18T18:08:45Z</time>
      </trkpt>
      <trkpt lat="50.545618" lon="6.228817">
        <ele>518.800000</ele>
        <time>2009-10-18T18:08:49Z</time>
      </trkpt>
      <trkpt lat="50.545588" lon="6.228558">
        <ele>528.900000</ele>
        <time>2009-10-18T18:08:55Z</time>
      </trkpt>
      <trkpt lat="50.545602" lon="6.228333">
        <ele>527.400000</ele>
        <time>2009-10-18T18:08:59Z</time>
      </trkpt>
      <trkpt lat="50.545522" lon="6.228188">
        <ele>532.700000</ele>
        <time>2009-10-18T18:09:03Z</time>
      </trkpt>
      <trkpt lat="50.545463" lon="6.227880">
        <ele>539.900000</ele>
        <time>2009-10-18T18:09:09Z</time>
      </trkpt>
      <trkpt lat="50.545271" lon="6.227606">
        <ele>538.000000</ele>
        <time>2009-10-18T18:09:17Z</time>
      </trkpt>
      <trkpt lat="50.544986" lon="6.227060">
        <ele>540.400000</ele>
        <time>2009-10-18T18:09:31Z</time>
      </trkpt>
      <trkpt lat="50.544616" lon="6.226604">
        <ele>538.500000</ele>
        <time>2009-10-18T18:09:46Z</time>
      </trkpt>
      <trkpt lat="50.544375" lon="6.226164">
        <ele>540.400000</ele>
        <time>2009-10-18T18:09:57Z</time>
      </trkpt>
      <trkpt lat="50.543220" lon="6.224874">
        <ele>530.800000</ele>
        <time>2009-10-18T18:10:41Z</time>
      </trkpt>
      <trkpt lat="50.542485" lon="6.224325">
        <ele>526.900000</ele>
        <time>2009-10-18T18:11:06Z</time>
      </trkpt>
      <trkpt lat="50.542192" lon="6.224266">
        <ele>525.500000</ele>
        <time>2009-10-18T18:11:15Z</time>
      </trkpt>
      <trkpt lat="50.541943" lon="6.223975">
        <ele>525.000000</ele>
        <time>2009-10-18T18:11:25Z</time>
      </trkpt>
      <trkpt lat="50.541776" lon="6.223575">
        <ele>524.500000</ele>
        <time>2009-10-18T18:11:34Z</time>
      </trkpt>
      <trkpt lat="50.540954" lon="6.222174">
        <ele>528.400000</ele>
        <time>2009-10-18T18:12:12Z</time>
      </trkpt>
      <trkpt lat="50.540885" lon="6.221972">
        <ele>525.500000</ele>
        <time>2009-10-18T18:12:16Z</time>
      </trkpt>
      <trkpt lat="50.541268" lon="6.220271">
        <ele>517.300000</ele>
        <time>2009-10-18T18:12:52Z</time>
      </trkpt>
      <trkpt lat="50.541274" lon="6.220126">
        <ele>516.400000</ele>
        <time>2009-10-18T18:12:54Z</time>
      </trkpt>
      <trkpt lat="50.540601" lon="6.220349">
        <ele>516.400000</ele>
        <time>2009-10-18T18:13:16Z</time>
      </trkpt>
      <trkpt lat="50.540259" lon="6.220295">
        <ele>516.400000</ele>
        <time>2009-10-18T18:13:26Z</time>
      </trkpt>
      <trkpt lat="50.539836" lon="6.220010">
        <ele>518.800000</ele>
        <time>2009-10-18T18:13:40Z</time>
      </trkpt>
      <trkpt lat="50.539736" lon="6.219887">
        <ele>516.800000</ele>
        <time>2009-10-18T18:13:44Z</time>
      </trkpt>
      <trkpt lat="50.539437" lon="6.219723">
        <ele>519.700000</ele>
        <time>2009-10-18T18:13:54Z</time>
      </trkpt>
      <trkpt lat="50.539025" lon="6.219845">
        <ele>517.300000</ele>
        <time>2009-10-18T18:14:07Z</time>
      </trkpt>
      <trkpt lat="50.538813" lon="6.220018">
        <ele>520.700000</ele>
        <time>2009-10-18T18:14:15Z</time>
      </trkpt>
      <trkpt lat="50.537340" lon="6.221909">
        <ele>529.800000</ele>
        <time>2009-10-18T18:15:13Z</time>
      </trkpt>
      <trkpt lat="50.537261" lon="6.221838">
        <ele>530.800000</ele>
        <time>2009-10-18T18:15:16Z</time>
      </trkpt>
      <trkpt lat="50.536361" lon="6.219896">
        <ele>538.000000</ele>
        <time>2009-10-18T18:16:03Z</time>
      </trkpt>
      <trkpt lat="50.536370" lon="6.219577">
        <ele>537.500000</ele>
        <time>2009-10-18T18:16:10Z</time>
      </trkpt>
      <trkpt lat="50.536889" lon="6.218444">
        <ele>532.200000</ele>
        <time>2009-10-18T18:16:37Z</time>
      </trkpt>
      <trkpt lat="50.537234" lon="6.217214">
        <ele>532.200000</ele>
        <time>2009-10-18T18:17:04Z</time>
      </trkpt>
      <trkpt lat="50.537524" lon="6.215992">
        <ele>537.000000</ele>
        <time>2009-10-18T18:17:29Z</time>
      </trkpt>
      <trkpt lat="50.537693" lon="6.215498">
        <ele>539.400000</ele>
        <time>2009-10-18T18:17:40Z</time>
      </trkpt>
      <trkpt lat="50.537812" lon="6.215356">
        <ele>536.600000</ele>
        <time>2009-10-18T18:17:45Z</time>
      </trkpt>
      <trkpt lat="50.538142" lon="6.215023">
        <ele>538.500000</ele>
        <time>2009-10-18T18:17:57Z</time>
      </trkpt>
      <trkpt lat="50.538941" lon="6.214538">
        <ele>537.500000</ele>
        <time>2009-10-18T18:18:23Z</time>
      </trkpt>
      <trkpt lat="50.539214" lon="6.214466">
        <ele>536.600000</ele>
        <time>2009-10-18T18:18:32Z</time>
      </trkpt>
      <trkpt lat="50.539479" lon="6.214491">
        <ele>539.000000</ele>
        <time>2009-10-18T18:18:40Z</time>
      </trkpt>
      <trkpt lat="50.539839" lon="6.214625">
        <ele>538.000000</ele>
        <time>2009-10-18T18:18:52Z</time>
      </trkpt>
      <trkpt lat="50.540196" lon="6.214576">
        <ele>537.500000</ele>
        <time>2009-10-18T18:19:03Z</time>
      </trkpt>
      <trkpt lat="50.541308" lon="6.213721">
        <ele>535.100000</ele>
        <time>2009-10-18T18:19:41Z</time>
      </trkpt>
      <trkpt lat="50.541843" lon="6.213219">
        <ele>532.200000</ele>
        <time>2009-10-18T18:20:00Z</time>
      </trkpt>
      <trkpt lat="50.542083" lon="6.213075">
        <ele>528.900000</ele>
        <time>2009-10-18T18:20:08Z</time>
      </trkpt>
      <trkpt lat="50.542370" lon="6.212989">
        <ele>528.400000</ele>
        <time>2009-10-18T18:20:17Z</time>
      </trkpt>
      <trkpt lat="50.542466" lon="6.212813">
        <ele>531.700000</ele>
        <time>2009-10-18T18:20:22Z</time>
      </trkpt>
      <trkpt lat="50.542200" lon="6.212460">
        <ele>545.200000</ele>
        <time>2009-10-18T18:20:33Z</time>
      </trkpt>
      <trkpt lat="50.542270" lon="6.212422">
        <ele>541.800000</ele>
        <time>2009-10-18T18:20:35Z</time>
      </trkpt>
      <trkpt lat="50.542250" lon="6.212477">
        <ele>541.800000</ele>
        <time>2009-10-18T18:20:36Z</time>
      </trkpt>
      <trkpt lat="50.542125" lon="6.212399">
        <ele>539.000000</ele>
        <time>2009-10-18T18:20:40Z</time>
      </trkpt>
      <trkpt lat="50.541474" lon="6.211642">
        <ele>539.900000</ele>
        <time>2009-10-18T18:21:05Z</time>
      </trkpt>
      <trkpt lat="50.538786" lon="6.208311">
        <ele>551.000000</ele>
        <time>2009-10-18T18:22:51Z</time>
      </trkpt>
      <trkpt lat="50.538803" lon="6.208170">
        <ele>551.000000</ele>
        <time>2009-10-18T18:22:54Z</time>
      </trkpt>
      <trkpt lat="50.538704" lon="6.207899">
        <ele>553.900000</ele>
        <time>2009-10-18T18:23:00Z</time>
      </trkpt>
      <trkpt lat="50.538637" lon="6.207143">
        <ele>546.200000</ele>
        <time>2009-10-18T18:23:15Z</time>
      </trkpt>
      <trkpt lat="50.538399" lon="6.205720">
        <ele>536.100000</ele>
        <time>2009-10-18T18:23:44Z</time>
      </trkpt>
      <trkpt lat="50.538438" lon="6.204771">
        <ele>531.700000</ele>
        <time>2009-10-18T18:24:03Z</time>
      </trkpt>
      <trkpt lat="50.538585" lon="6.204149">
        <ele>521.700000</ele>
        <time>2009-10-18T18:24:16Z</time>
      </trkpt>
      <trkpt lat="50.538540" lon="6.204029">
        <ele>518.800000</ele>
        <time>2009-10-18T18:24:18Z</time>
      </trkpt>
      <trkpt lat="50.538373" lon="6.203996">
        <ele>521.200000</ele>
        <time>2009-10-18T18:24:24Z</time>
      </trkpt>
      <trkpt lat="50.538174" lon="6.204079">
        <ele>514.900000</ele>
        <time>2009-10-18T18:24:30Z</time>
      </trkpt>
      <trkpt lat="50.537980" lon="6.203992">
        <ele>504.300000</ele>
        <time>2009-10-18T18:24:36Z</time>
      </trkpt>
      <trkpt lat="50.537729" lon="6.203682">
        <ele>518.800000</ele>
        <time>2009-10-18T18:24:46Z</time>
      </trkpt>
      <trkpt lat="50.536757" lon="6.203161">
        <ele>521.700000</ele>
        <time>2009-10-18T18:25:18Z</time>
      </trkpt>
      <trkpt lat="50.536283" lon="6.203315">
        <ele>519.700000</ele>
        <time>2009-10-18T18:25:33Z</time>
      </trkpt>
      <trkpt lat="50.535684" lon="6.203633">
        <ele>516.400000</ele>
        <time>2009-10-18T18:25:52Z</time>
      </trkpt>
      <trkpt lat="50.535384" lon="6.203673">
        <ele>522.600000</ele>
        <time>2009-10-18T18:26:02Z</time>
      </trkpt>
      <trkpt lat="50.535011" lon="6.203417">
        <ele>528.900000</ele>
        <time>2009-10-18T18:26:14Z</time>
      </trkpt>
      <trkpt lat="50.534594" lon="6.202956">
        <ele>529.300000</ele>
        <time>2009-10-18T18:26:30Z</time>
      </trkpt>
      <trkpt lat="50.533968" lon="6.202883">
        <ele>535.600000</ele>
        <time>2009-10-18T18:26:49Z</time>
      </trkpt>
      <trkpt lat="50.533506" lon="6.202600">
        <ele>537.000000</ele>
        <time>2009-10-18T18:27:05Z</time>
      </trkpt>
      <trkpt lat="50.532574" lon="6.202093">
        <ele>541.400000</ele>
        <time>2009-10-18T18:27:35Z</time>
      </trkpt>
      <trkpt lat="50.532430" lon="6.201888">
        <ele>539.900000</ele>
        <time>2009-10-18T18:27:41Z</time>
      </trkpt>
      <trkpt lat="50.531781" lon="6.200584">
        <ele>529.800000</ele>
        <time>2009-10-18T18:28:14Z</time>
      </trkpt>
      <trkpt lat="50.531658" lon="6.200409">
        <ele>522.100000</ele>
        <time>2009-10-18T18:28:19Z</time>
      </trkpt>
      <trkpt lat="50.531491" lon="6.200273">
        <ele>524.500000</ele>
        <time>2009-10-18T18:28:25Z</time>
      </trkpt>
      <trkpt lat="50.531062" lon="6.200204">
        <ele>506.800000</ele>
        <time>2009-10-18T18:28:38Z</time>
      </trkpt>
      <trkpt lat="50.530671" lon="6.199989">
        <ele>501.900000</ele>
        <time>2009-10-18T18:28:51Z</time>
      </trkpt>
      <trkpt lat="50.529964" lon="6.200037">
        <ele>483.700000</ele>
        <time>2009-10-18T18:29:13Z</time>
      </trkpt>
      <trkpt lat="50.529735" lon="6.200099">
        <ele>503.400000</ele>
        <time>2009-10-18T18:29:20Z</time>
      </trkpt>
      <trkpt lat="50.529325" lon="6.200360">
        <ele>511.100000</ele>
        <time>2009-10-18T18:29:34Z</time>
      </trkpt>
      <trkpt lat="50.529058" lon="6.200797">
        <ele>511.600000</ele>
        <time>2009-10-18T18:29:46Z</time>
      </trkpt>
      <trkpt lat="50.528861" lon="6.201495">
        <ele>507.700000</ele>
        <time>2009-10-18T18:30:01Z</time>
      </trkpt>
      <trkpt lat="50.528663" lon="6.201950">
        <ele>503.400000</ele>
        <time>2009-10-18T18:30:11Z</time>
      </trkpt>
      <trkpt lat="50.528599" lon="6.201914">
        <ele>501.500000</ele>
        <time>2009-10-18T18:30:14Z</time>
      </trkpt>
      <trkpt lat="50.528583" lon="6.201812">
        <ele>504.800000</ele>
        <time>2009-10-18T18:30:16Z</time>
      </trkpt>
      <trkpt lat="50.528711" lon="6.200674">
        <ele>500.500000</ele>
        <time>2009-10-18T18:30:38Z</time>
      </trkpt>
      <trkpt lat="50.528821" lon="6.200284">
        <ele>500.000000</ele>
        <time>2009-10-18T18:30:47Z</time>
      </trkpt>
      <trkpt lat="50.529006" lon="6.199879">
        <ele>503.400000</ele>
        <time>2009-10-18T18:30:57Z</time>
      </trkpt>
      <trkpt lat="50.529232" lon="6.199603">
        <ele>503.400000</ele>
        <time>2009-10-18T18:31:05Z</time>
      </trkpt>
      <trkpt lat="50.529671" lon="6.199244">
        <ele>502.900000</ele>
        <time>2009-10-18T18:31:21Z</time>
      </trkpt>
      <trkpt lat="50.530156" lon="6.198967">
        <ele>501.500000</ele>
        <time>2009-10-18T18:31:37Z</time>
      </trkpt>
      <trkpt lat="50.530708" lon="6.198731">
        <ele>503.900000</ele>
        <time>2009-10-18T18:31:54Z</time>
      </trkpt>
      <trkpt lat="50.531504" lon="6.198674">
        <ele>501.900000</ele>
        <time>2009-10-18T18:32:19Z</time>
      </trkpt>
      <trkpt lat="50.532734" lon="6.198832">
        <ele>498.100000</ele>
        <time>2009-10-18T18:32:57Z</time>
      </trkpt>
      <trkpt lat="50.533608" lon="6.199377">
        <ele>493.300000</ele>
        <time>2009-10-18T18:33:26Z</time>
      </trkpt>
      <trkpt lat="50.534798" lon="6.200414">
        <ele>489.400000</ele>
        <time>2009-10-18T18:34:08Z</time>
      </trkpt>
      <trkpt lat="50.535273" lon="6.200649">
        <ele>492.300000</ele>
        <time>2009-10-18T18:34:24Z</time>
      </trkpt>
      <trkpt lat="50.535602" lon="6.200620">
        <ele>497.600000</ele>
        <time>2009-10-18T18:34:34Z</time>
      </trkpt>
      <trkpt lat="50.535668" lon="6.200683">
        <ele>506.300000</ele>
        <time>2009-10-18T18:34:36Z</time>
      </trkpt>
      <trkpt lat="50.535700" lon="6.200798">
        <ele>504.300000</ele>
        <time>2009-10-18T18:34:39Z</time>
      </trkpt>
      <trkpt lat="50.535662" lon="6.200987">
        <ele>491.900000</ele>
        <time>2009-10-18T18:34:43Z</time>
      </trkpt>
      <trkpt lat="50.535676" lon="6.200774">
        <ele>490.400000</ele>
        <time>2009-10-18T18:34:47Z</time>
      </trkpt>
      <trkpt lat="50.535782" lon="6.200557">
        <ele>492.800000</ele>
        <time>2009-10-18T18:34:52Z</time>
      </trkpt>
      <trkpt lat="50.535748" lon="6.200025">
        <ele>487.500000</ele>
        <time>2009-10-18T18:35:03Z</time>
      </trkpt>
      <trkpt lat="50.535773" lon="6.199838">
        <ele>487.500000</ele>
        <time>2009-10-18T18:35:06Z</time>
      </trkpt>
      <trkpt lat="50.535604" lon="6.199619">
        <ele>487.000000</ele>
        <time>2009-10-18T18:35:13Z</time>
      </trkpt>
      <trkpt lat="50.535538" lon="6.199681">
        <ele>489.400000</ele>
        <time>2009-10-18T18:35:16Z</time>
      </trkpt>
      <trkpt lat="50.535600" lon="6.199626">
        <ele>491.900000</ele>
        <time>2009-10-18T18:35:18Z</time>
      </trkpt>
    </trkseg>
  </trk>

</gpx>
